sensor_id;sensor_type;location;lat;lon;timestamp;temperature;humidity
8711;DHT22;4392;47.400;8.062;2023-01-29T00:01:54;3.70;88.90
8711;DHT22;4392;47.400;8.062;2023-01-29T00:04:21;3.70;88.80
8711;DHT22;4392;47.400;8.062;2023-01-29T00:06:46;3.70;88.70
8711;DHT22;4392;47.400;8.062;2023-01-29T00:09:12;3.70;88.70
8711;DHT22;4392;47.400;8.062;2023-01-29T00:11:38;3.70;88.50
8711;DHT22;4392;47.400;8.062;2023-01-29T00:14:04;3.70;88.30
8711;DHT22;4392;47.400;8.062;2023-01-29T00:16:30;3.70;88.60
8711;DHT22;4392;47.400;8.062;2023-01-29T00:18:56;3.70;88.30
8711;DHT22;4392;47.400;8.062;2023-01-29T00:21:23;3.60;88.20
8711;DHT22;4392;47.400;8.062;2023-01-29T00:23:52;3.60;88.20
8711;DHT22;4392;47.400;8.062;2023-01-29T00:26:22;3.70;88.20
8711;DHT22;4392;47.400;8.062;2023-01-29T00:28:48;3.70;88.20
8711;DHT22;4392;47.400;8.062;2023-01-29T00:31:17;3.50;88.10
8711;DHT22;4392;47.400;8.062;2023-01-29T00:33:43;3.30;88.70
8711;DHT22;4392;47.400;8.062;2023-01-29T00:36:11;3.40;89.70
8711;DHT22;4392;47.400;8.062;2023-01-29T00:38:37;3.50;89.30
8711;DHT22;4392;47.400;8.062;2023-01-29T00:41:07;3.60;89.00
8711;DHT22;4392;47.400;8.062;2023-01-29T00:43:54;3.60;88.90
8711;DHT22;4392;47.400;8.062;2023-01-29T00:46:38;3.70;88.80
8711;DHT22;4392;47.400;8.062;2023-01-29T00:49:04;3.70;88.50
8711;DHT22;4392;47.400;8.062;2023-01-29T00:51:33;3.70;88.40
8711;DHT22;4392;47.400;8.062;2023-01-29T00:54:01;3.60;88.20
8711;DHT22;4392;47.400;8.062;2023-01-29T00:56:32;3.50;88.80
8711;DHT22;4392;47.400;8.062;2023-01-29T00:59:04;3.60;88.50
8711;DHT22;4392;47.400;8.062;2023-01-29T01:01:39;3.70;88.60
8711;DHT22;4392;47.400;8.062;2023-01-29T01:04:24;3.60;88.90
8711;DHT22;4392;47.400;8.062;2023-01-29T01:06:58;3.70;88.80
8711;DHT22;4392;47.400;8.062;2023-01-29T01:09:28;3.70;88.40
8711;DHT22;4392;47.400;8.062;2023-01-29T01:12:16;3.70;88.50
8711;DHT22;4392;47.400;8.062;2023-01-29T01:14:44;3.70;88.30
8711;DHT22;4392;47.400;8.062;2023-01-29T01:17:10;3.70;88.60
8711;DHT22;4392;47.400;8.062;2023-01-29T01:19:37;3.70;88.30
8711;DHT22;4392;47.400;8.062;2023-01-29T01:22:10;3.70;88.30
8711;DHT22;4392;47.400;8.062;2023-01-29T01:24:37;3.60;88.70
8711;DHT22;4392;47.400;8.062;2023-01-29T01:27:03;3.50;89.10
8711;DHT22;4392;47.400;8.062;2023-01-29T01:29:28;3.50;89.50
8711;DHT22;4392;47.400;8.062;2023-01-29T01:31:59;3.60;89.20
8711;DHT22;4392;47.400;8.062;2023-01-29T01:34:25;3.70;89.20
8711;DHT22;4392;47.400;8.062;2023-01-29T01:36:53;3.70;89.30
8711;DHT22;4392;47.400;8.062;2023-01-29T01:39:23;3.70;88.80
8711;DHT22;4392;47.400;8.062;2023-01-29T01:41:50;3.30;89.70
8711;DHT22;4392;47.400;8.062;2023-01-29T01:47:15;3.50;90.00
8711;DHT22;4392;47.400;8.062;2023-01-29T01:49:54;3.50;90.00
8711;DHT22;4392;47.400;8.062;2023-01-29T01:52:24;3.60;89.80
8711;DHT22;4392;47.400;8.062;2023-01-29T01:54:50;3.70;89.30
8711;DHT22;4392;47.400;8.062;2023-01-29T01:57:28;3.70;89.40
8711;DHT22;4392;47.400;8.062;2023-01-29T02:00:05;3.70;88.80
8711;DHT22;4392;47.400;8.062;2023-01-29T02:02:39;3.70;88.60
8711;DHT22;4392;47.400;8.062;2023-01-29T02:05:24;3.80;89.10
8711;DHT22;4392;47.400;8.062;2023-01-29T02:08:23;3.80;88.90
8711;DHT22;4392;47.400;8.062;2023-01-29T02:11:10;3.80;88.70
8711;DHT22;4392;47.400;8.062;2023-01-29T02:13:36;3.80;89.00
8711;DHT22;4392;47.400;8.062;2023-01-29T02:16:06;3.80;89.00
8711;DHT22;4392;47.400;8.062;2023-01-29T02:18:34;3.80;89.20
8711;DHT22;4392;47.400;8.062;2023-01-29T02:35:16;3.80;89.30
8711;DHT22;4392;47.400;8.062;2023-01-29T02:38:10;3.80;89.30
8711;DHT22;4392;47.400;8.062;2023-01-29T02:41:27;3.80;89.40
8711;DHT22;4392;47.400;8.062;2023-01-29T02:57:58;3.80;89.50
8711;DHT22;4392;47.400;8.062;2023-01-29T03:00:35;3.80;89.60
8711;DHT22;4392;47.400;8.062;2023-01-29T03:03:32;3.80;89.60
8711;DHT22;4392;47.400;8.062;2023-01-29T03:06:29;3.80;89.60
8711;DHT22;4392;47.400;8.062;2023-01-29T03:09:19;3.80;89.40
8711;DHT22;4392;47.400;8.062;2023-01-29T03:11:56;3.80;89.50
8711;DHT22;4392;47.400;8.062;2023-01-29T03:14:33;3.80;89.30
8711;DHT22;4392;47.400;8.062;2023-01-29T03:17:36;3.80;89.30
8711;DHT22;4392;47.400;8.062;2023-01-29T03:20:07;3.80;89.00
8711;DHT22;4392;47.400;8.062;2023-01-29T03:22:46;3.80;89.00
8711;DHT22;4392;47.400;8.062;2023-01-29T03:25:19;3.80;89.00
8711;DHT22;4392;47.400;8.062;2023-01-29T03:28:06;3.80;89.20
8711;DHT22;4392;47.400;8.062;2023-01-29T03:30:55;3.80;88.90
8711;DHT22;4392;47.400;8.062;2023-01-29T03:34:00;3.80;88.50
8711;DHT22;4392;47.400;8.062;2023-01-29T03:36:47;3.80;88.10
8711;DHT22;4392;47.400;8.062;2023-01-29T03:39:32;3.80;88.00
8711;DHT22;4392;47.400;8.062;2023-01-29T03:45:38;3.80;87.80
8711;DHT22;4392;47.400;8.062;2023-01-29T03:48:45;3.80;87.10
8711;DHT22;4392;47.400;8.062;2023-01-29T03:54:14;3.80;87.10
8711;DHT22;4392;47.400;8.062;2023-01-29T04:02:02;3.90;86.40
8711;DHT22;4392;47.400;8.062;2023-01-29T04:04:37;3.90;86.30
8711;DHT22;4392;47.400;8.062;2023-01-29T04:07:13;3.70;86.10
8711;DHT22;4392;47.400;8.062;2023-01-29T04:10:09;3.70;86.30
8711;DHT22;4392;47.400;8.062;2023-01-29T04:12:40;3.80;86.40
8711;DHT22;4392;47.400;8.062;2023-01-29T04:15:11;3.80;86.10
8711;DHT22;4392;47.400;8.062;2023-01-29T04:17:50;3.80;85.60
8711;DHT22;4392;47.400;8.062;2023-01-29T04:20:19;3.80;85.00
8711;DHT22;4392;47.400;8.062;2023-01-29T04:22:51;3.80;84.80
8711;DHT22;4392;47.400;8.062;2023-01-29T04:25:23;3.80;84.60
8711;DHT22;4392;47.400;8.062;2023-01-29T04:28:04;3.80;85.60
8711;DHT22;4392;47.400;8.062;2023-01-29T04:30:45;3.80;84.80
8711;DHT22;4392;47.400;8.062;2023-01-29T04:33:30;3.90;84.80
8711;DHT22;4392;47.400;8.062;2023-01-29T04:36:27;3.80;84.20
8711;DHT22;4392;47.400;8.062;2023-01-29T04:39:20;3.80;83.90
8711;DHT22;4392;47.400;8.062;2023-01-29T04:42:15;3.80;84.00
8711;DHT22;4392;47.400;8.062;2023-01-29T04:50:31;3.80;84.40
8711;DHT22;4392;47.400;8.062;2023-01-29T04:55:48;3.80;85.30
8711;DHT22;4392;47.400;8.062;2023-01-29T05:01:12;3.80;84.40
8711;DHT22;4392;47.400;8.062;2023-01-29T05:03:42;3.80;84.70
8711;DHT22;4392;47.400;8.062;2023-01-29T05:06:12;3.80;84.60
8711;DHT22;4392;47.400;8.062;2023-01-29T05:08:45;3.70;84.70
8711;DHT22;4392;47.400;8.062;2023-01-29T05:11:14;3.80;84.70
8711;DHT22;4392;47.400;8.062;2023-01-29T05:13:47;3.80;84.60
8711;DHT22;4392;47.400;8.062;2023-01-29T05:16:24;3.80;84.70
8711;DHT22;4392;47.400;8.062;2023-01-29T05:18:50;3.80;84.70
8711;DHT22;4392;47.400;8.062;2023-01-29T05:21:20;3.80;84.80
8711;DHT22;4392;47.400;8.062;2023-01-29T05:24:15;3.90;85.00
8711;DHT22;4392;47.400;8.062;2023-01-29T05:26:49;3.80;85.20
8711;DHT22;4392;47.400;8.062;2023-01-29T05:29:34;3.80;85.20
8711;DHT22;4392;47.400;8.062;2023-01-29T05:32:00;3.80;85.40
8711;DHT22;4392;47.400;8.062;2023-01-29T05:34:26;3.80;85.10
8711;DHT22;4392;47.400;8.062;2023-01-29T05:36:51;3.80;84.90
8711;DHT22;4392;47.400;8.062;2023-01-29T05:39:18;3.80;84.50
8711;DHT22;4392;47.400;8.062;2023-01-29T05:41:47;3.80;84.40
8711;DHT22;4392;47.400;8.062;2023-01-29T05:44:13;3.80;84.30
8711;DHT22;4392;47.400;8.062;2023-01-29T05:46:39;3.80;84.20
8711;DHT22;4392;47.400;8.062;2023-01-29T05:49:04;3.80;83.90
8711;DHT22;4392;47.400;8.062;2023-01-29T05:51:30;3.80;83.50
8711;DHT22;4392;47.400;8.062;2023-01-29T05:53:59;3.80;83.60
8711;DHT22;4392;47.400;8.062;2023-01-29T05:56:24;3.80;83.30
8711;DHT22;4392;47.400;8.062;2023-01-29T05:58:50;3.80;83.30
8711;DHT22;4392;47.400;8.062;2023-01-29T06:01:18;3.80;83.30
8711;DHT22;4392;47.400;8.062;2023-01-29T06:03:52;3.80;83.30
8711;DHT22;4392;47.400;8.062;2023-01-29T06:06:17;3.80;83.20
8711;DHT22;4392;47.400;8.062;2023-01-29T06:08:43;3.80;82.90
8711;DHT22;4392;47.400;8.062;2023-01-29T06:11:15;3.80;82.10
8711;DHT22;4392;47.400;8.062;2023-01-29T06:13:44;3.80;82.50
8711;DHT22;4392;47.400;8.062;2023-01-29T06:16:13;3.80;82.70
8711;DHT22;4392;47.400;8.062;2023-01-29T06:18:42;3.80;82.80
8711;DHT22;4392;47.400;8.062;2023-01-29T06:21:10;3.80;82.60
8711;DHT22;4392;47.400;8.062;2023-01-29T06:23:37;3.80;82.80
8711;DHT22;4392;47.400;8.062;2023-01-29T06:26:13;3.80;83.00
8711;DHT22;4392;47.400;8.062;2023-01-29T06:28:39;3.80;83.10
8711;DHT22;4392;47.400;8.062;2023-01-29T06:31:09;3.80;83.30
8711;DHT22;4392;47.400;8.062;2023-01-29T06:33:37;3.80;83.20
8711;DHT22;4392;47.400;8.062;2023-01-29T06:36:04;3.80;83.20
8711;DHT22;4392;47.400;8.062;2023-01-29T06:38:30;3.80;83.30
8711;DHT22;4392;47.400;8.062;2023-01-29T06:40:56;3.80;83.20
8711;DHT22;4392;47.400;8.062;2023-01-29T06:43:26;3.70;82.90
8711;DHT22;4392;47.400;8.062;2023-01-29T06:45:55;3.80;83.00
8711;DHT22;4392;47.400;8.062;2023-01-29T06:48:23;3.80;82.90
8711;DHT22;4392;47.400;8.062;2023-01-29T06:50:52;3.80;83.60
8711;DHT22;4392;47.400;8.062;2023-01-29T06:53:20;3.80;83.00
8711;DHT22;4392;47.400;8.062;2023-01-29T06:55:52;3.80;82.80
8711;DHT22;4392;47.400;8.062;2023-01-29T06:58:19;3.80;83.20
8711;DHT22;4392;47.400;8.062;2023-01-29T07:00:47;3.80;83.30
8711;DHT22;4392;47.400;8.062;2023-01-29T07:03:20;3.90;83.40
8711;DHT22;4392;47.400;8.062;2023-01-29T07:05:53;3.80;83.10
8711;DHT22;4392;47.400;8.062;2023-01-29T07:08:19;3.90;83.20
8711;DHT22;4392;47.400;8.062;2023-01-29T07:10:48;3.90;83.30
8711;DHT22;4392;47.400;8.062;2023-01-29T07:13:13;3.90;83.30
8711;DHT22;4392;47.400;8.062;2023-01-29T07:15:42;3.90;83.20
8711;DHT22;4392;47.400;8.062;2023-01-29T07:18:09;3.90;83.30
8711;DHT22;4392;47.400;8.062;2023-01-29T07:20:41;3.90;83.30
8711;DHT22;4392;47.400;8.062;2023-01-29T07:23:13;3.90;83.30
8711;DHT22;4392;47.400;8.062;2023-01-29T07:25:43;3.90;83.20
8711;DHT22;4392;47.400;8.062;2023-01-29T07:28:09;3.90;83.10
8711;DHT22;4392;47.400;8.062;2023-01-29T07:30:35;3.90;83.00
8711;DHT22;4392;47.400;8.062;2023-01-29T07:33:07;3.90;83.10
8711;DHT22;4392;47.400;8.062;2023-01-29T07:35:42;4.10;82.80
8711;DHT22;4392;47.400;8.062;2023-01-29T07:38:10;4.10;83.10
8711;DHT22;4392;47.400;8.062;2023-01-29T07:40:39;4.00;82.90
8711;DHT22;4392;47.400;8.062;2023-01-29T07:43:09;4.00;82.90
8711;DHT22;4392;47.400;8.062;2023-01-29T07:45:37;4.00;82.90
8711;DHT22;4392;47.400;8.062;2023-01-29T07:48:04;4.00;83.00
8711;DHT22;4392;47.400;8.062;2023-01-29T07:50:34;4.00;82.90
8711;DHT22;4392;47.400;8.062;2023-01-29T07:53:00;4.00;82.90
8711;DHT22;4392;47.400;8.062;2023-01-29T07:55:26;4.00;83.00
8711;DHT22;4392;47.400;8.062;2023-01-29T07:58:02;4.00;83.00
8711;DHT22;4392;47.400;8.062;2023-01-29T08:00:34;4.00;82.90
8711;DHT22;4392;47.400;8.062;2023-01-29T08:03:04;3.90;82.50
8711;DHT22;4392;47.400;8.062;2023-01-29T08:05:36;3.90;82.40
8711;DHT22;4392;47.400;8.062;2023-01-29T08:08:02;4.00;82.90
8711;DHT22;4392;47.400;8.062;2023-01-29T08:10:30;4.00;82.70
8711;DHT22;4392;47.400;8.062;2023-01-29T08:12:59;4.00;82.80
8711;DHT22;4392;47.400;8.062;2023-01-29T08:15:26;3.90;82.60
8711;DHT22;4392;47.400;8.062;2023-01-29T08:17:55;4.00;83.00
8711;DHT22;4392;47.400;8.062;2023-01-29T08:20:27;4.00;82.90
8711;DHT22;4392;47.400;8.062;2023-01-29T08:23:18;3.90;82.30
8711;DHT22;4392;47.400;8.062;2023-01-29T08:25:44;4.00;82.80
8711;DHT22;4392;47.400;8.062;2023-01-29T08:28:10;4.00;82.90
8711;DHT22;4392;47.400;8.062;2023-01-29T08:30:38;4.00;83.00
8711;DHT22;4392;47.400;8.062;2023-01-29T08:33:04;4.00;82.80
8711;DHT22;4392;47.400;8.062;2023-01-29T08:35:30;4.00;82.70
8711;DHT22;4392;47.400;8.062;2023-01-29T08:37:57;4.00;82.40
8711;DHT22;4392;47.400;8.062;2023-01-29T08:40:26;4.00;82.70
8711;DHT22;4392;47.400;8.062;2023-01-29T08:42:59;4.00;82.60
8711;DHT22;4392;47.400;8.062;2023-01-29T08:45:25;4.00;82.50
8711;DHT22;4392;47.400;8.062;2023-01-29T08:47:54;3.90;82.10
8711;DHT22;4392;47.400;8.062;2023-01-29T08:50:20;3.90;82.10
8711;DHT22;4392;47.400;8.062;2023-01-29T08:52:45;3.90;82.20
8711;DHT22;4392;47.400;8.062;2023-01-29T08:55:17;3.90;82.10
8711;DHT22;4392;47.400;8.062;2023-01-29T08:57:43;4.00;82.50
8711;DHT22;4392;47.400;8.062;2023-01-29T09:00:15;4.00;82.40
8711;DHT22;4392;47.400;8.062;2023-01-29T09:02:47;4.00;82.30
8711;DHT22;4392;47.400;8.062;2023-01-29T09:05:13;4.10;82.40
8711;DHT22;4392;47.400;8.062;2023-01-29T09:07:41;4.10;82.10
8711;DHT22;4392;47.400;8.062;2023-01-29T09:10:13;4.00;81.50
8711;DHT22;4392;47.400;8.062;2023-01-29T09:12:38;4.00;81.60
8711;DHT22;4392;47.400;8.062;2023-01-29T09:15:05;4.00;82.20
8711;DHT22;4392;47.400;8.062;2023-01-29T09:17:30;4.10;81.10
8711;DHT22;4392;47.400;8.062;2023-01-29T09:19:56;3.90;81.00
8711;DHT22;4392;47.400;8.062;2023-01-29T09:22:35;3.90;81.10
8711;DHT22;4392;47.400;8.062;2023-01-29T09:25:01;3.90;81.10
8711;DHT22;4392;47.400;8.062;2023-01-29T09:27:29;3.70;80.90
8711;DHT22;4392;47.400;8.062;2023-01-29T09:29:55;3.70;81.50
8711;DHT22;4392;47.400;8.062;2023-01-29T09:32:20;3.80;81.70
8711;DHT22;4392;47.400;8.062;2023-01-29T09:34:47;3.90;81.20
8711;DHT22;4392;47.400;8.062;2023-01-29T09:37:24;3.80;81.00
8711;DHT22;4392;47.400;8.062;2023-01-29T09:39:52;3.70;81.40
8711;DHT22;4392;47.400;8.062;2023-01-29T09:42:49;3.60;81.20
8711;DHT22;4392;47.400;8.062;2023-01-29T09:45:23;3.80;80.90
8711;DHT22;4392;47.400;8.062;2023-01-29T09:47:49;3.90;80.90
8711;DHT22;4392;47.400;8.062;2023-01-29T09:55:58;3.80;80.90
8711;DHT22;4392;47.400;8.062;2023-01-29T09:58:41;3.90;80.10
8711;DHT22;4392;47.400;8.062;2023-01-29T10:01:12;3.80;80.50
8711;DHT22;4392;47.400;8.062;2023-01-29T10:23:36;4.00;79.40
8711;DHT22;4392;47.400;8.062;2023-01-29T10:26:11;4.10;79.90
8711;DHT22;4392;47.400;8.062;2023-01-29T10:28:47;4.10;79.80
8711;DHT22;4392;47.400;8.062;2023-01-29T10:31:25;4.00;79.00
8711;DHT22;4392;47.400;8.062;2023-01-29T10:33:57;4.00;79.90
8711;DHT22;4392;47.400;8.062;2023-01-29T10:36:33;4.00;79.20
8711;DHT22;4392;47.400;8.062;2023-01-29T10:39:30;4.00;79.20
8711;DHT22;4392;47.400;8.062;2023-01-29T10:47:18;4.10;79.40
8711;DHT22;4392;47.400;8.062;2023-01-29T11:00:48;4.10;80.40
8711;DHT22;4392;47.400;8.062;2023-01-29T11:03:17;4.10;80.20
8711;DHT22;4392;47.400;8.062;2023-01-29T11:08:36;4.20;80.20
8711;DHT22;4392;47.400;8.062;2023-01-29T11:11:15;4.30;80.50
8711;DHT22;4392;47.400;8.062;2023-01-29T11:13:59;4.30;80.70
8711;DHT22;4392;47.400;8.062;2023-01-29T11:16:26;4.40;80.60
8711;DHT22;4392;47.400;8.062;2023-01-29T11:18:59;4.40;80.50
8711;DHT22;4392;47.400;8.062;2023-01-29T11:21:27;4.50;80.60
8711;DHT22;4392;47.400;8.062;2023-01-29T11:24:12;4.50;80.20
8711;DHT22;4392;47.400;8.062;2023-01-29T11:26:42;4.50;80.30
8711;DHT22;4392;47.400;8.062;2023-01-29T11:29:38;4.50;80.10
8711;DHT22;4392;47.400;8.062;2023-01-29T11:32:34;4.50;79.70
8711;DHT22;4392;47.400;8.062;2023-01-29T11:37:38;4.50;80.00
8711;DHT22;4392;47.400;8.062;2023-01-29T11:42:49;4.30;80.10
8711;DHT22;4392;47.400;8.062;2023-01-29T11:47:52;4.20;80.50
8711;DHT22;4392;47.400;8.062;2023-01-29T11:50:29;4.30;80.00
8711;DHT22;4392;47.400;8.062;2023-01-29T11:53:00;4.40;79.80
8711;DHT22;4392;47.400;8.062;2023-01-29T11:55:32;4.50;79.70
8711;DHT22;4392;47.400;8.062;2023-01-29T12:00:30;4.50;79.70
8711;DHT22;4392;47.400;8.062;2023-01-29T12:03:38;4.60;81.90
8711;DHT22;4392;47.400;8.062;2023-01-29T12:06:35;4.70;81.10
8711;DHT22;4392;47.400;8.062;2023-01-29T12:09:13;4.70;79.30
8711;DHT22;4392;47.400;8.062;2023-01-29T12:11:41;4.70;79.40
8711;DHT22;4392;47.400;8.062;2023-01-29T12:14:28;4.70;79.50
8711;DHT22;4392;47.400;8.062;2023-01-29T12:17:18;4.70;78.90
8711;DHT22;4392;47.400;8.062;2023-01-29T12:20:05;4.60;77.90
8711;DHT22;4392;47.400;8.062;2023-01-29T12:23:23;4.50;78.60
8711;DHT22;4392;47.400;8.062;2023-01-29T12:26:05;4.60;78.20
8711;DHT22;4392;47.400;8.062;2023-01-29T12:29:22;4.60;78.00
8711;DHT22;4392;47.400;8.062;2023-01-29T12:37:49;4.60;77.80
8711;DHT22;4392;47.400;8.062;2023-01-29T12:40:17;4.60;78.00
8711;DHT22;4392;47.400;8.062;2023-01-29T12:42:51;4.60;77.50
8711;DHT22;4392;47.400;8.062;2023-01-29T12:45:26;4.70;77.60
8711;DHT22;4392;47.400;8.062;2023-01-29T12:48:08;4.70;77.60
8711;DHT22;4392;47.400;8.062;2023-01-29T12:50:38;4.40;77.00
8711;DHT22;4392;47.400;8.062;2023-01-29T12:53:06;4.30;77.30
8711;DHT22;4392;47.400;8.062;2023-01-29T12:58:34;4.40;77.10
8711;DHT22;4392;47.400;8.062;2023-01-29T13:01:26;4.30;77.60
8711;DHT22;4392;47.400;8.062;2023-01-29T13:06:49;4.50;77.70
8711;DHT22;4392;47.400;8.062;2023-01-29T13:09:24;4.30;76.60
8711;DHT22;4392;47.400;8.062;2023-01-29T13:12:13;4.50;76.50
8711;DHT22;4392;47.400;8.062;2023-01-29T13:15:04;4.50;76.20
8711;DHT22;4392;47.400;8.062;2023-01-29T13:17:46;4.50;76.40
8711;DHT22;4392;47.400;8.062;2023-01-29T13:20:29;4.30;76.40
8711;DHT22;4392;47.400;8.062;2023-01-29T13:23:27;4.40;76.60
8711;DHT22;4392;47.400;8.062;2023-01-29T13:25:59;4.40;76.10
8711;DHT22;4392;47.400;8.062;2023-01-29T13:28:25;4.40;76.90
8711;DHT22;4392;47.400;8.062;2023-01-29T13:33:40;4.50;76.60
8711;DHT22;4392;47.400;8.062;2023-01-29T13:36:21;4.60;77.10
8711;DHT22;4392;47.400;8.062;2023-01-29T13:39:35;4.60;77.50
8711;DHT22;4392;47.400;8.062;2023-01-29T13:42:18;4.60;77.00
8711;DHT22;4392;47.400;8.062;2023-01-29T13:44:55;4.60;77.10
8711;DHT22;4392;47.400;8.062;2023-01-29T13:47:27;4.30;76.10
8711;DHT22;4392;47.400;8.062;2023-01-29T13:50:06;4.30;77.50
8711;DHT22;4392;47.400;8.062;2023-01-29T13:52:43;4.50;77.60
8711;DHT22;4392;47.400;8.062;2023-01-29T13:57:57;4.60;77.10
8711;DHT22;4392;47.400;8.062;2023-01-29T14:13:41;4.90;78.60
8711;DHT22;4392;47.400;8.062;2023-01-29T14:18:56;5.10;78.90
8711;DHT22;4392;47.400;8.062;2023-01-29T14:21:32;5.20;78.90
8711;DHT22;4392;47.400;8.062;2023-01-29T14:24:17;5.20;78.00
8711;DHT22;4392;47.400;8.062;2023-01-29T14:26:55;6.50;99.90
8711;DHT22;4392;47.400;8.062;2023-01-29T14:29:29;6.00;85.30
8711;DHT22;4392;47.400;8.062;2023-01-29T14:37:49;5.30;82.70
8711;DHT22;4392;47.400;8.062;2023-01-29T14:40:20;5.40;79.60
8711;DHT22;4392;47.400;8.062;2023-01-29T14:45:42;5.20;77.20
8711;DHT22;4392;47.400;8.062;2023-01-29T14:50:45;5.00;76.70
8711;DHT22;4392;47.400;8.062;2023-01-29T14:53:18;5.10;76.60
8711;DHT22;4392;47.400;8.062;2023-01-29T14:55:57;5.00;75.90
8711;DHT22;4392;47.400;8.062;2023-01-29T14:58:32;5.00;75.40
8711;DHT22;4392;47.400;8.062;2023-01-29T15:01:13;5.00;75.70
8711;DHT22;4392;47.400;8.062;2023-01-29T15:04:21;5.00;75.00
8711;DHT22;4392;47.400;8.062;2023-01-29T15:06:51;5.00;75.20
8711;DHT22;4392;47.400;8.062;2023-01-29T15:09:39;5.00;75.50
8711;DHT22;4392;47.400;8.062;2023-01-29T15:12:32;5.00;75.40
8711;DHT22;4392;47.400;8.062;2023-01-29T15:18:43;5.20;76.80
8711;DHT22;4392;47.400;8.062;2023-01-29T15:21:11;5.10;77.20
8711;DHT22;4392;47.400;8.062;2023-01-29T15:23:37;5.10;76.60
8711;DHT22;4392;47.400;8.062;2023-01-29T15:26:11;5.10;76.20
8711;DHT22;4392;47.400;8.062;2023-01-29T15:28:44;5.20;77.00
8711;DHT22;4392;47.400;8.062;2023-01-29T15:31:16;5.20;77.50
8711;DHT22;4392;47.400;8.062;2023-01-29T15:33:47;5.20;77.30
8711;DHT22;4392;47.400;8.062;2023-01-29T15:36:23;5.20;77.70
8711;DHT22;4392;47.400;8.062;2023-01-29T15:39:32;5.20;77.00
8711;DHT22;4392;47.400;8.062;2023-01-29T15:42:14;5.10;76.40
8711;DHT22;4392;47.400;8.062;2023-01-29T15:44:46;5.20;78.20
8711;DHT22;4392;47.400;8.062;2023-01-29T15:47:14;5.10;75.10
8711;DHT22;4392;47.400;8.062;2023-01-29T15:49:50;5.00;75.20
8711;DHT22;4392;47.400;8.062;2023-01-29T15:52:21;5.00;75.50
8711;DHT22;4392;47.400;8.062;2023-01-29T15:54:48;5.00;76.00
8711;DHT22;4392;47.400;8.062;2023-01-29T15:57:27;5.10;78.70
8711;DHT22;4392;47.400;8.062;2023-01-29T15:59:58;5.10;76.60
8711;DHT22;4392;47.400;8.062;2023-01-29T16:05:16;4.90;75.80
8711;DHT22;4392;47.400;8.062;2023-01-29T16:07:44;4.90;75.80
8711;DHT22;4392;47.400;8.062;2023-01-29T16:10:19;4.80;76.00
8711;DHT22;4392;47.400;8.062;2023-01-29T16:12:47;4.80;76.80
8711;DHT22;4392;47.400;8.062;2023-01-29T16:15:32;4.80;76.20
8711;DHT22;4392;47.400;8.062;2023-01-29T16:18:22;4.70;76.40
8711;DHT22;4392;47.400;8.062;2023-01-29T16:20:56;4.60;77.30
8711;DHT22;4392;47.400;8.062;2023-01-29T16:23:29;4.50;79.30
8711;DHT22;4392;47.400;8.062;2023-01-29T16:26:04;4.60;79.80
8711;DHT22;4392;47.400;8.062;2023-01-29T16:28:38;4.70;79.60
8711;DHT22;4392;47.400;8.062;2023-01-29T16:31:33;4.80;85.60
8711;DHT22;4392;47.400;8.062;2023-01-29T16:34:09;5.50;92.20
8711;DHT22;4392;47.400;8.062;2023-01-29T16:36:44;5.20;80.90
8711;DHT22;4392;47.400;8.062;2023-01-29T16:39:21;5.00;79.20
8711;DHT22;4392;47.400;8.062;2023-01-29T16:47:21;4.70;79.90
8711;DHT22;4392;47.400;8.062;2023-01-29T16:49:59;4.70;80.30
8711;DHT22;4392;47.400;8.062;2023-01-29T16:52:35;4.60;80.00
8711;DHT22;4392;47.400;8.062;2023-01-29T16:55:18;4.40;80.50
8711;DHT22;4392;47.400;8.062;2023-01-29T16:57:52;4.60;86.10
8711;DHT22;4392;47.400;8.062;2023-01-29T17:00:28;4.60;79.90
8711;DHT22;4392;47.400;8.062;2023-01-29T17:03:16;4.60;79.10
8711;DHT22;4392;47.400;8.062;2023-01-29T17:05:46;4.50;78.60
8711;DHT22;4392;47.400;8.062;2023-01-29T17:08:35;4.40;80.20
8711;DHT22;4392;47.400;8.062;2023-01-29T17:11:01;4.40;80.20
8711;DHT22;4392;47.400;8.062;2023-01-29T17:13:29;4.30;80.80
8711;DHT22;4392;47.400;8.062;2023-01-29T17:16:20;4.50;83.40
8711;DHT22;4392;47.400;8.062;2023-01-29T17:18:48;4.60;80.80
8711;DHT22;4392;47.400;8.062;2023-01-29T17:21:14;4.60;79.40
8711;DHT22;4392;47.400;8.062;2023-01-29T17:23:39;4.50;79.80
8711;DHT22;4392;47.400;8.062;2023-01-29T17:26:17;4.50;81.30
8711;DHT22;4392;47.400;8.062;2023-01-29T17:28:44;4.60;79.50
8711;DHT22;4392;47.400;8.062;2023-01-29T17:31:13;4.60;79.20
8711;DHT22;4392;47.400;8.062;2023-01-29T17:33:40;4.50;79.50
8711;DHT22;4392;47.400;8.062;2023-01-29T17:36:15;4.50;79.40
8711;DHT22;4392;47.400;8.062;2023-01-29T17:38:41;4.50;79.30
8711;DHT22;4392;47.400;8.062;2023-01-29T17:41:26;4.60;79.30
8711;DHT22;4392;47.400;8.062;2023-01-29T17:43:52;4.60;91.80
8711;DHT22;4392;47.400;8.062;2023-01-29T17:46:18;4.90;86.30
8711;DHT22;4392;47.400;8.062;2023-01-29T17:48:49;4.80;82.30
8711;DHT22;4392;47.400;8.062;2023-01-29T17:51:16;4.70;80.90
8711;DHT22;4392;47.400;8.062;2023-01-29T17:53:45;4.60;80.30
8711;DHT22;4392;47.400;8.062;2023-01-29T17:56:27;4.60;81.10
8711;DHT22;4392;47.400;8.062;2023-01-29T17:58:55;4.50;81.00
8711;DHT22;4392;47.400;8.062;2023-01-29T18:01:20;4.50;80.10
8711;DHT22;4392;47.400;8.062;2023-01-29T18:03:46;4.40;81.60
8711;DHT22;4392;47.400;8.062;2023-01-29T18:06:41;4.50;81.20
8711;DHT22;4392;47.400;8.062;2023-01-29T18:09:14;4.70;81.50
8711;DHT22;4392;47.400;8.062;2023-01-29T18:11:57;4.70;80.60
8711;DHT22;4392;47.400;8.062;2023-01-29T18:14:22;4.60;80.50
8711;DHT22;4392;47.400;8.062;2023-01-29T18:16:54;4.60;80.60
8711;DHT22;4392;47.400;8.062;2023-01-29T18:19:23;4.70;80.90
8711;DHT22;4392;47.400;8.062;2023-01-29T18:21:55;4.80;81.00
8711;DHT22;4392;47.400;8.062;2023-01-29T18:24:21;4.80;81.60
8711;DHT22;4392;47.400;8.062;2023-01-29T18:26:48;4.90;83.30
8711;DHT22;4392;47.400;8.062;2023-01-29T18:29:19;4.80;83.20
8711;DHT22;4392;47.400;8.062;2023-01-29T18:31:47;4.70;82.40
8711;DHT22;4392;47.400;8.062;2023-01-29T18:34:13;4.60;82.30
8711;DHT22;4392;47.400;8.062;2023-01-29T18:36:42;4.60;81.70
8711;DHT22;4392;47.400;8.062;2023-01-29T18:39:11;4.60;81.70
8711;DHT22;4392;47.400;8.062;2023-01-29T18:41:37;4.50;81.30
8711;DHT22;4392;47.400;8.062;2023-01-29T18:44:11;4.40;81.00
8711;DHT22;4392;47.400;8.062;2023-01-29T18:46:37;4.40;80.90
8711;DHT22;4392;47.400;8.062;2023-01-29T18:49:09;4.30;80.70
8711;DHT22;4392;47.400;8.062;2023-01-29T18:51:35;4.30;80.90
8711;DHT22;4392;47.400;8.062;2023-01-29T18:54:01;4.30;82.50
8711;DHT22;4392;47.400;8.062;2023-01-29T18:56:26;4.40;90.40
8711;DHT22;4392;47.400;8.062;2023-01-29T18:58:57;5.50;99.90
8711;DHT22;4392;47.400;8.062;2023-01-29T19:01:25;5.20;90.00
8711;DHT22;4392;47.400;8.062;2023-01-29T19:03:56;5.00;88.50
8711;DHT22;4392;47.400;8.062;2023-01-29T19:06:24;4.70;88.00
8711;DHT22;4392;47.400;8.062;2023-01-29T19:08:49;4.50;86.60
8711;DHT22;4392;47.400;8.062;2023-01-29T19:11:15;4.70;94.90
8711;DHT22;4392;47.400;8.062;2023-01-29T19:13:45;4.60;88.00
8711;DHT22;4392;47.400;8.062;2023-01-29T19:16:14;4.40;87.20
8711;DHT22;4392;47.400;8.062;2023-01-29T19:18:40;4.40;86.90
8711;DHT22;4392;47.400;8.062;2023-01-29T19:21:13;4.30;85.60
8711;DHT22;4392;47.400;8.062;2023-01-29T19:23:41;3.90;85.90
8711;DHT22;4392;47.400;8.062;2023-01-29T19:26:11;3.90;86.80
8711;DHT22;4392;47.400;8.062;2023-01-29T19:28:38;3.80;86.50
8711;DHT22;4392;47.400;8.062;2023-01-29T19:31:03;3.80;86.80
8711;DHT22;4392;47.400;8.062;2023-01-29T19:33:29;3.80;87.00
8711;DHT22;4392;47.400;8.062;2023-01-29T19:36:01;3.80;86.90
8711;DHT22;4392;47.400;8.062;2023-01-29T19:38:27;3.80;86.60
8711;DHT22;4392;47.400;8.062;2023-01-29T19:40:53;3.70;86.40
8711;DHT22;4392;47.400;8.062;2023-01-29T19:43:39;3.60;86.70
8711;DHT22;4392;47.400;8.062;2023-01-29T19:46:06;3.60;86.30